Kinsale, Virginia
Current Conditions -  °F | °C
As of 5:53 AM on Thursday 18 Dec 2014 (Local Time) from KNUI Reporting Station
Clear Clear  
Wind Chill: 28°   Ceiling: Unl
Heat Index: 36°   Visibility: 10mi
Dew Point: 19°   Wind: 10mph
Humidity: 50%   Direction: 300°WNW
Pressure: 30.12"   Gusts: NA
Location:  38.03°N, 76.58°W
Report Text: KNUI 181053Z AUTO 30009KT 10SM CLR 02/M07 A3012 RMK AO2 SLP199 T00221072
Loading
Personal Weather Stations






























Interactive Weather Map New forecast layout! Learn more

10-Day Weather Forecast

Advertisements
Track Severe Weather on mobile